createdAt,value
2022-09-22T00:01:42.090Z,99.90
2022-09-22T00:04:14.926Z,99.90
2022-09-22T00:06:47.517Z,99.90
2022-09-22T00:09:18.402Z,99.90
2022-09-22T00:11:49.481Z,99.90
2022-09-22T00:14:21.330Z,99.90
2022-09-22T00:16:52.518Z,99.90
2022-09-22T00:19:24.645Z,99.90
2022-09-22T00:21:53.613Z,99.90
2022-09-22T00:24:24.246Z,99.90
2022-09-22T00:26:56.754Z,99.90
2022-09-22T00:29:26.768Z,99.90
2022-09-22T00:31:56.659Z,99.90
2022-09-22T00:34:28.674Z,99.90
2022-09-22T00:36:57.362Z,99.90
2022-09-22T00:39:27.366Z,99.90
2022-09-22T00:41:56.103Z,99.90
2022-09-22T00:44:42.114Z,99.90
2022-09-22T00:47:30.932Z,99.90
2022-09-22T00:50:10.018Z,99.90
2022-09-22T00:52:44.906Z,99.90
2022-09-22T00:55:17.116Z,99.90
2022-09-22T00:57:48.582Z,99.90
2022-09-22T01:00:18.966Z,99.90
2022-09-22T01:02:49.878Z,99.90
2022-09-22T01:05:23.879Z,99.90
2022-09-22T01:07:55.870Z,99.90
2022-09-22T01:10:26.493Z,99.90
2022-09-22T01:13:09.392Z,99.90
2022-09-22T01:15:45.596Z,99.90
2022-09-22T01:18:22.102Z,99.90
2022-09-22T01:21:26.172Z,99.90
2022-09-22T01:24:25.325Z,99.90
2022-09-22T01:27:28.915Z,99.90
2022-09-22T01:30:18.701Z,99.90
2022-09-22T01:33:02.612Z,99.90
2022-09-22T01:35:36.242Z,99.90
2022-09-22T01:38:11.430Z,99.90
2022-09-22T01:40:48.321Z,99.90
2022-09-22T01:43:23.317Z,99.90
2022-09-22T01:45:55.513Z,99.90
2022-09-22T01:48:26.580Z,99.90
2022-09-22T01:50:59.856Z,99.90
2022-09-22T01:53:34.174Z,99.90
2022-09-22T01:56:08.808Z,99.90
2022-09-22T01:58:41.488Z,99.90
2022-09-22T02:01:15.283Z,99.90
2022-09-22T02:03:49.278Z,99.90
2022-09-22T02:06:22.597Z,99.90
2022-09-22T02:08:57.990Z,99.90
2022-09-22T02:11:27.098Z,99.90
2022-09-22T02:13:56.196Z,99.90
2022-09-22T02:16:27.757Z,99.90
2022-09-22T02:19:12.092Z,99.90
2022-09-22T02:21:43.178Z,99.90
2022-09-22T02:24:28.242Z,99.90
2022-09-22T02:26:58.184Z,99.90
2022-09-22T02:29:30.219Z,99.90
2022-09-22T02:32:02.152Z,99.90
2022-09-22T02:34:31.995Z,99.90
2022-09-22T02:37:08.822Z,99.90
2022-09-22T02:39:43.659Z,99.90
2022-09-22T02:42:24.224Z,99.90
2022-09-22T02:45:00.641Z,99.90
2022-09-22T02:47:35.411Z,99.90
2022-09-22T02:50:08.452Z,99.90
2022-09-22T02:52:39.070Z,99.90
2022-09-22T02:55:08.980Z,99.90
2022-09-22T02:57:38.635Z,99.90
2022-09-22T03:00:08.878Z,99.90
2022-09-22T03:02:38.861Z,99.90
2022-09-22T03:05:08.316Z,99.90
2022-09-22T03:07:37.290Z,99.90
2022-09-22T03:10:08.152Z,99.90
2022-09-22T03:13:02.467Z,99.90
2022-09-22T03:15:31.634Z,99.90
2022-09-22T03:18:01.909Z,99.90
2022-09-22T03:20:30.453Z,99.90
2022-09-22T03:22:59.132Z,99.90
2022-09-22T03:25:27.716Z,99.90
2022-09-22T03:27:56.372Z,99.90
2022-09-22T03:30:25.130Z,99.90
2022-09-22T03:32:53.793Z,99.90
2022-09-22T03:35:23.887Z,99.90
2022-09-22T03:37:52.824Z,99.90
2022-09-22T03:40:22.278Z,99.90
2022-09-22T03:42:51.276Z,99.90
2022-09-22T03:45:20.560Z,99.90
2022-09-22T03:47:49.614Z,99.90
2022-09-22T03:50:18.382Z,99.90
2022-09-22T03:52:48.818Z,99.90
2022-09-22T03:55:17.477Z,99.90
2022-09-22T03:57:46.092Z,99.90
2022-09-22T04:00:16.839Z,99.90
2022-09-22T04:02:45.442Z,99.90
2022-09-22T04:05:14.391Z,99.90
2022-09-22T04:07:43.285Z,99.90
2022-09-22T04:10:13.564Z,99.90
2022-09-22T04:12:42.417Z,99.90
2022-09-22T04:15:11.494Z,99.90
2022-09-22T04:17:40.045Z,99.90
2022-09-22T04:20:11.503Z,99.90
2022-09-22T04:22:40.294Z,99.90
2022-09-22T04:25:10.545Z,99.90
2022-09-22T04:27:41.232Z,99.90
2022-09-22T04:30:11.190Z,99.90
2022-09-22T04:32:39.708Z,99.90
2022-09-22T04:35:09.962Z,99.90
2022-09-22T04:37:38.700Z,99.90
2022-09-22T04:40:08.489Z,99.90
2022-09-22T04:42:37.250Z,99.90
2022-09-22T04:45:08.643Z,99.90
2022-09-22T04:47:37.312Z,99.90
2022-09-22T04:50:06.529Z,99.90
2022-09-22T04:52:35.319Z,99.90
2022-09-22T04:55:04.134Z,99.90
2022-09-22T04:57:32.772Z,99.90
2022-09-22T05:00:02.040Z,99.90
2022-09-22T05:02:32.726Z,99.90
2022-09-22T05:05:01.373Z,99.90
2022-09-22T05:07:31.830Z,99.90
2022-09-22T05:10:00.721Z,99.90
2022-09-22T05:12:29.618Z,99.90
2022-09-22T05:15:00.956Z,99.90
2022-09-22T05:17:30.393Z,99.90
2022-09-22T05:20:00.221Z,99.90
2022-09-22T05:22:28.840Z,99.90
2022-09-22T05:24:57.279Z,99.90
2022-09-22T05:27:25.906Z,99.90
2022-09-22T05:29:54.409Z,99.90
2022-09-22T05:32:23.014Z,99.90
2022-09-22T05:34:51.669Z,99.90
2022-09-22T05:37:21.795Z,99.90
2022-09-22T05:39:50.780Z,99.90
2022-09-22T05:42:19.468Z,99.90
2022-09-22T05:44:48.393Z,99.90
2022-09-22T05:47:17.040Z,99.90
2022-09-22T05:49:45.714Z,99.90
2022-09-22T05:52:14.274Z,99.90
2022-09-22T05:54:44.232Z,99.90
2022-09-22T05:57:12.826Z,99.90
2022-09-22T05:59:41.432Z,99.90
2022-09-22T06:02:25.141Z,99.90
2022-09-22T06:04:54.938Z,99.90
2022-09-22T06:07:25.366Z,99.90
2022-09-22T06:09:55.311Z,99.90
2022-09-22T06:12:23.981Z,99.90
2022-09-22T06:14:52.492Z,99.90
2022-09-22T06:17:21.035Z,99.90
2022-09-22T06:19:50.394Z,99.90
2022-09-22T06:22:19.415Z,99.90
2022-09-22T06:24:48.912Z,99.90
2022-09-22T06:27:18.852Z,99.90
2022-09-22T06:29:47.391Z,99.90
2022-09-22T06:32:16.066Z,99.90
2022-09-22T06:34:46.337Z,99.90
2022-09-22T06:37:15.714Z,99.90
2022-09-22T06:39:44.491Z,99.90
2022-09-22T06:42:15.222Z,99.90
2022-09-22T06:44:45.696Z,99.90
2022-09-22T06:47:14.792Z,99.90
2022-09-22T06:49:43.389Z,99.90
2022-09-22T06:52:13.940Z,99.90
2022-09-22T06:54:42.903Z,99.90
2022-09-22T06:57:13.163Z,99.90
2022-09-22T06:59:42.141Z,99.90
2022-09-22T07:02:12.833Z,99.90
2022-09-22T07:04:41.430Z,99.90
2022-09-22T07:07:10.113Z,99.90
2022-09-22T07:09:38.781Z,99.90
2022-09-22T07:12:07.846Z,99.90
2022-09-22T07:14:36.586Z,99.90
2022-09-22T07:17:05.257Z,99.90
2022-09-22T07:19:35.298Z,99.90
2022-09-22T07:22:04.321Z,99.90
2022-09-22T07:24:32.885Z,1.00
2022-09-22T07:27:06.949Z,99.90
2022-09-22T07:29:35.606Z,1.00
2022-09-22T07:32:05.302Z,1.00
2022-09-22T07:34:35.514Z,1.00
2022-09-22T07:37:04.149Z,1.00
2022-09-22T07:39:32.863Z,99.90
2022-09-22T07:42:01.558Z,1.00
2022-09-22T07:44:47.408Z,1.00
2022-09-22T07:47:36.423Z,1.00
2022-09-22T07:50:07.205Z,99.90
2022-09-22T07:52:36.326Z,1.00
2022-09-22T07:55:05.644Z,1.00
2022-09-22T07:57:34.251Z,1.00
2022-09-22T08:00:03.945Z,99.90
2022-09-22T08:02:41.249Z,1.00
2022-09-22T08:05:11.734Z,1.00
2022-09-22T08:07:40.319Z,1.00
2022-09-22T08:10:11.006Z,99.90
2022-09-22T08:12:39.537Z,99.90
2022-09-22T08:15:09.253Z,99.90
2022-09-22T08:17:38.350Z,99.90
2022-09-22T08:20:09.185Z,99.90
2022-09-22T08:22:39.567Z,64.90
2022-09-22T08:25:12.515Z,28.90
2022-09-22T08:27:41.548Z,91.50
2022-09-22T08:30:12.150Z,1.00
2022-09-22T08:32:41.358Z,1.00
2022-09-22T08:35:10.273Z,1.00
2022-09-22T08:37:41.870Z,1.00
2022-09-22T08:40:18.154Z,1.00
2022-09-22T08:42:47.023Z,1.00
2022-09-22T08:45:27.330Z,1.00
2022-09-22T08:48:19.233Z,1.00
2022-09-22T08:51:08.802Z,1.00
2022-09-22T08:53:47.094Z,1.00
2022-09-22T08:56:23.375Z,1.00
2022-09-22T08:59:01.390Z,1.00
2022-09-22T09:01:54.818Z,1.00
2022-09-22T09:04:54.007Z,1.00
2022-09-22T09:07:33.027Z,1.00
2022-09-22T09:10:15.748Z,99.90
2022-09-22T09:12:56.687Z,99.90
2022-09-22T09:15:38.263Z,99.90
2022-09-22T09:18:16.507Z,99.90
2022-09-22T09:20:48.788Z,99.90
2022-09-22T09:23:21.380Z,99.90
2022-09-22T09:25:55.249Z,99.90
2022-09-22T09:28:32.293Z,99.90
2022-09-22T09:31:09.546Z,99.90
2022-09-22T09:33:44.778Z,99.90
2022-09-22T09:36:17.585Z,95.90
2022-09-22T09:38:52.021Z,23.10
2022-09-22T09:41:24.856Z,6.40
2022-09-22T09:43:54.499Z,1.00
2022-09-22T09:46:35.435Z,1.00
2022-09-22T09:49:09.022Z,1.00
2022-09-22T09:51:40.960Z,1.00
2022-09-22T09:54:17.095Z,1.00
2022-09-22T09:57:11.937Z,1.00
2022-09-22T10:00:00.007Z,1.00
2022-09-22T10:02:30.730Z,1.00
2022-09-22T10:05:03.359Z,1.00
2022-09-22T10:07:40.879Z,1.00
2022-09-22T10:10:33.842Z,1.00
2022-09-22T10:13:29.357Z,1.00
2022-09-22T10:16:24.669Z,1.00
2022-09-22T10:19:05.760Z,1.00
2022-09-22T10:21:37.789Z,1.00
2022-09-22T10:24:25.611Z,1.00
2022-09-22T10:26:57.491Z,1.00
2022-09-22T10:29:28.010Z,1.00
2022-09-22T10:32:18.189Z,1.00
2022-09-22T10:34:49.473Z,1.00
2022-09-22T10:37:22.655Z,1.00
2022-09-22T10:39:52.899Z,1.00
2022-09-22T10:42:32.707Z,1.00
2022-09-22T10:45:07.208Z,1.00
2022-09-22T10:47:57.519Z,1.00
2022-09-22T10:50:49.537Z,99.90
2022-09-22T10:53:37.745Z,99.90
2022-09-22T10:56:17.681Z,99.90
2022-09-22T10:59:11.676Z,99.90
2022-09-22T11:02:04.009Z,99.90
2022-09-22T11:04:52.217Z,99.90
2022-09-22T11:07:56.105Z,99.90
2022-09-22T11:10:53.360Z,99.90
2022-09-22T11:13:36.411Z,99.90
2022-09-22T11:16:22.623Z,99.90
2022-09-22T11:19:17.572Z,99.90
2022-09-22T11:22:00.182Z,99.90
2022-09-22T11:24:45.551Z,99.90
2022-09-22T11:27:23.959Z,99.90
2022-09-22T11:30:11.578Z,99.90
2022-09-22T11:32:54.346Z,99.90
2022-09-22T11:35:55.204Z,99.90
2022-09-22T11:38:45.192Z,99.90
2022-09-22T11:41:32.422Z,99.90
2022-09-22T11:44:17.169Z,99.90
2022-09-22T11:47:19.161Z,93.50
2022-09-22T11:50:17.809Z,89.30
2022-09-22T11:53:04.118Z,62.60
2022-09-22T11:55:38.115Z,35.40
2022-09-22T11:58:12.778Z,15.20
2022-09-22T12:00:48.459Z,1.00
2022-09-22T12:03:22.120Z,1.00
2022-09-22T12:05:55.484Z,1.00
2022-09-22T12:08:34.002Z,1.00
2022-09-22T12:11:07.538Z,1.00
2022-09-22T12:13:42.181Z,1.00
2022-09-22T12:16:18.742Z,1.00
2022-09-22T12:18:53.465Z,1.00
2022-09-22T12:21:36.344Z,1.00
2022-09-22T12:24:10.175Z,1.00
2022-09-22T12:26:43.102Z,1.00
2022-09-22T12:29:26.553Z,1.00
2022-09-22T12:31:56.954Z,1.00
2022-09-22T12:34:28.372Z,1.00
2022-09-22T12:37:00.463Z,8.70
2022-09-22T12:39:31.113Z,98.50
2022-09-22T12:42:03.779Z,99.90
2022-09-22T12:44:35.750Z,99.90
2022-09-22T12:47:07.328Z,99.90
2022-09-22T12:49:36.044Z,99.90
2022-09-22T12:52:24.819Z,99.90
2022-09-22T12:54:54.309Z,1.00
2022-09-22T12:57:31.773Z,99.90
2022-09-22T13:00:32.104Z,99.90
2022-09-22T13:03:24.513Z,99.90
2022-09-22T13:05:55.038Z,99.90
2022-09-22T13:08:26.289Z,99.90
2022-09-22T13:11:05.367Z,99.90
2022-09-22T13:13:44.595Z,99.90
2022-09-22T13:16:38.478Z,99.90
2022-09-22T13:19:14.992Z,99.90
2022-09-22T13:21:43.527Z,94.00
2022-09-22T13:24:19.638Z,61.40
2022-09-22T13:27:05.461Z,38.50
2022-09-22T13:29:36.674Z,24.10
2022-09-22T13:32:18.497Z,1.00
2022-09-22T13:34:47.765Z,1.00
2022-09-22T13:37:20.907Z,1.00
2022-09-22T13:39:53.302Z,1.00
2022-09-22T13:42:32.526Z,1.00
2022-09-22T13:45:06.670Z,1.00
2022-09-22T13:47:36.932Z,1.00
2022-09-22T13:50:09.618Z,1.00
2022-09-22T13:52:40.932Z,1.00
2022-09-22T13:55:14.426Z,1.00
2022-09-22T13:57:43.817Z,1.00
2022-09-22T14:00:24.657Z,1.00
2022-09-22T14:02:54.270Z,1.00
2022-09-22T14:05:27.610Z,1.00
2022-09-22T14:08:12.025Z,1.00
2022-09-22T14:10:44.635Z,1.00
2022-09-22T14:13:39.476Z,1.00
2022-09-22T14:16:17.052Z,1.00
2022-09-22T14:18:49.797Z,1.00
2022-09-22T14:21:18.841Z,1.00
2022-09-22T14:23:50.239Z,1.00
2022-09-22T14:26:33.731Z,1.00
2022-09-22T14:29:17.248Z,1.00
2022-09-22T14:31:52.467Z,1.00
2022-09-22T14:34:27.470Z,1.00
2022-09-22T14:36:56.768Z,1.00
2022-09-22T14:39:34.293Z,1.00
2022-09-22T14:42:12.151Z,1.00
2022-09-22T14:44:46.439Z,1.00
2022-09-22T14:47:28.283Z,1.00
2022-09-22T14:50:13.930Z,1.00
2022-09-22T14:52:53.067Z,1.00
2022-09-22T14:55:30.542Z,1.00
2022-09-22T14:58:04.449Z,1.00
2022-09-22T15:00:51.774Z,1.00
2022-09-22T15:03:29.234Z,1.00
2022-09-22T15:06:08.951Z,1.00
2022-09-22T15:08:37.944Z,1.00
2022-09-22T15:11:07.482Z,1.00
2022-09-22T15:13:42.548Z,1.00
2022-09-22T15:16:36.126Z,1.00
2022-09-22T15:19:06.515Z,1.00
2022-09-22T15:21:47.013Z,1.00
2022-09-22T15:24:21.396Z,1.00
2022-09-22T15:26:50.051Z,1.00
2022-09-22T15:29:18.575Z,1.00
2022-09-22T15:31:47.911Z,1.00
2022-09-22T15:34:19.039Z,1.00
2022-09-22T15:36:50.133Z,1.00
2022-09-22T15:39:22.635Z,1.00
2022-09-22T15:41:52.066Z,1.00
2022-09-22T15:44:20.880Z,1.00
2022-09-22T15:46:52.629Z,1.00
2022-09-22T15:49:26.652Z,1.00
2022-09-22T15:51:56.756Z,1.00
2022-09-22T15:54:27.069Z,1.00
2022-09-22T15:56:57.423Z,1.00
2022-09-22T15:59:29.490Z,1.00
2022-09-22T16:02:01.372Z,1.00
2022-09-22T16:04:31.628Z,1.00
2022-09-22T16:07:04.149Z,1.00
2022-09-22T16:09:33.109Z,1.00
2022-09-22T16:12:03.300Z,1.00
2022-09-22T16:14:31.939Z,1.00
2022-09-22T16:17:00.555Z,1.00
2022-09-22T16:19:32.106Z,1.00
2022-09-22T16:22:00.621Z,1.00
2022-09-22T16:24:30.354Z,1.00
2022-09-22T16:27:00.241Z,1.00
2022-09-22T16:29:28.856Z,1.00
2022-09-22T16:31:57.993Z,1.00
2022-09-22T16:34:28.372Z,1.00
2022-09-22T16:36:58.457Z,1.00
2022-09-22T16:39:27.291Z,1.00
2022-09-22T16:41:55.944Z,1.00
2022-09-22T16:44:24.491Z,1.00
2022-09-22T16:46:53.131Z,1.00
2022-09-22T16:49:22.817Z,1.00
2022-09-22T16:51:54.393Z,1.00
2022-09-22T16:54:26.066Z,1.00
2022-09-22T16:56:55.170Z,1.00
2022-09-22T16:59:24.818Z,1.00
2022-09-22T17:01:53.666Z,1.00
2022-09-22T17:04:22.543Z,1.00
2022-09-22T17:06:51.949Z,1.00
2022-09-22T17:09:21.000Z,1.00
2022-09-22T17:11:51.359Z,1.00
2022-09-22T17:14:23.177Z,1.00
2022-09-22T17:16:53.032Z,1.00
2022-09-22T17:19:23.168Z,1.00
2022-09-22T17:21:55.702Z,1.00
2022-09-22T17:24:25.203Z,1.00
2022-09-22T17:26:57.201Z,1.00
2022-09-22T17:29:27.669Z,1.00
2022-09-22T17:31:59.520Z,1.00
2022-09-22T17:34:30.258Z,1.00
2022-09-22T17:36:59.381Z,1.00
2022-09-22T17:39:29.271Z,1.00
2022-09-22T17:41:59.582Z,1.00
2022-09-22T17:44:28.930Z,1.00
2022-09-22T17:47:15.959Z,1.00
2022-09-22T17:50:02.354Z,1.00
2022-09-22T17:52:49.190Z,1.00
2022-09-22T17:55:22.033Z,1.00
2022-09-22T17:57:52.898Z,1.00
2022-09-22T18:00:23.368Z,1.00
2022-09-22T18:02:54.035Z,1.00
2022-09-22T18:05:27.188Z,1.00
2022-09-22T18:07:58.738Z,1.00
2022-09-22T18:10:34.319Z,1.00
2022-09-22T18:13:04.842Z,1.00
2022-09-22T18:15:33.640Z,1.00
2022-09-22T18:18:03.194Z,1.00
2022-09-22T18:20:33.820Z,1.00
2022-09-22T18:23:02.626Z,1.00
2022-09-22T18:25:32.417Z,1.00
2022-09-22T18:28:01.177Z,1.00
2022-09-22T18:30:32.194Z,1.00
2022-09-22T18:33:00.877Z,1.00
2022-09-22T18:35:31.974Z,1.00
2022-09-22T18:38:01.055Z,1.00
2022-09-22T18:40:29.953Z,1.00
2022-09-22T18:42:58.633Z,1.00
2022-09-22T18:45:27.805Z,1.00
2022-09-22T18:48:01.323Z,1.00
2022-09-22T18:50:31.341Z,1.00
2022-09-22T18:53:00.051Z,1.00
2022-09-22T18:55:30.221Z,1.00
2022-09-22T18:57:59.133Z,1.00
2022-09-22T19:00:28.050Z,1.00
2022-09-22T19:02:58.583Z,1.00
2022-09-22T19:05:28.603Z,1.00
2022-09-22T19:08:00.538Z,1.00
2022-09-22T19:10:29.234Z,1.00
2022-09-22T19:12:57.832Z,1.00
2022-09-22T19:15:26.626Z,1.00
2022-09-22T19:17:55.430Z,1.00
2022-09-22T19:20:26.404Z,1.00
2022-09-22T19:22:55.490Z,1.00
2022-09-22T19:25:24.433Z,1.00
2022-09-22T19:27:53.628Z,1.00
2022-09-22T19:30:25.779Z,1.00
2022-09-22T19:32:57.365Z,1.00
2022-09-22T19:35:27.741Z,1.00
2022-09-22T19:37:56.662Z,1.00
2022-09-22T19:40:25.591Z,1.00
2022-09-22T19:42:55.358Z,1.00
2022-09-22T19:45:25.616Z,1.00
2022-09-22T19:47:56.465Z,1.00
2022-09-22T19:50:27.459Z,1.00
2022-09-22T19:52:55.938Z,1.00
2022-09-22T19:55:24.906Z,1.00
2022-09-22T19:57:54.357Z,1.00
2022-09-22T20:00:26.339Z,1.00
2022-09-22T20:02:58.938Z,1.00
2022-09-22T20:05:31.635Z,1.00
2022-09-22T20:08:01.524Z,1.00
2022-09-22T20:10:31.686Z,1.00
2022-09-22T20:13:00.991Z,1.00
2022-09-22T20:15:30.885Z,1.00
2022-09-22T20:17:59.643Z,1.00
2022-09-22T20:20:30.291Z,1.00
2022-09-22T20:23:00.548Z,1.00
2022-09-22T20:25:31.298Z,1.00
2022-09-22T20:27:59.874Z,1.00
2022-09-22T20:30:28.551Z,1.00
2022-09-22T20:32:57.319Z,1.00
2022-09-22T20:35:26.345Z,1.00
2022-09-22T20:37:59.337Z,1.00
2022-09-22T20:40:29.215Z,1.00
2022-09-22T20:42:58.519Z,1.00
2022-09-22T20:45:27.375Z,5.60
2022-09-22T20:47:56.320Z,25.40
2022-09-22T20:50:26.650Z,45.90
2022-09-22T20:52:56.767Z,57.20
2022-09-22T20:55:25.688Z,81.50
2022-09-22T20:57:54.802Z,92.60
2022-09-22T21:00:23.413Z,99.90
2022-09-22T21:02:53.701Z,99.90
2022-09-22T21:05:22.940Z,99.90
2022-09-22T21:08:12.781Z,99.90
2022-09-22T21:10:41.741Z,99.90
2022-09-22T21:13:10.468Z,99.90
2022-09-22T21:15:39.513Z,99.90
2022-09-22T21:18:08.516Z,99.90
2022-09-22T21:20:37.403Z,99.90
2022-09-22T21:23:06.050Z,99.90
2022-09-22T21:25:34.883Z,99.90
2022-09-22T21:28:05.562Z,99.90
2022-09-22T21:30:34.502Z,99.90
2022-09-22T21:33:03.713Z,1.00
2022-09-22T21:35:32.575Z,1.00
2022-09-22T21:38:01.353Z,1.00
2022-09-22T21:40:30.522Z,1.00
2022-09-22T21:42:59.196Z,1.00
2022-09-22T21:45:29.265Z,1.00
2022-09-22T21:47:57.926Z,1.00
2022-09-22T21:50:28.180Z,1.00
2022-09-22T21:52:56.810Z,1.00
2022-09-22T21:55:27.373Z,1.00
2022-09-22T21:57:56.686Z,1.00
2022-09-22T22:00:48.317Z,31.80
2022-09-22T22:03:34.300Z,81.80
2022-09-22T22:06:05.471Z,99.90
2022-09-22T22:08:37.405Z,99.90
2022-09-22T22:11:08.405Z,99.90
2022-09-22T22:13:39.401Z,99.90
2022-09-22T22:16:10.241Z,99.90
2022-09-22T22:18:43.838Z,99.90
2022-09-22T22:21:15.685Z,99.90
2022-09-22T22:23:47.033Z,99.90
2022-09-22T22:26:20.053Z,99.90
2022-09-22T22:28:49.919Z,99.90
2022-09-22T22:31:21.331Z,99.90
2022-09-22T22:33:51.798Z,99.90
2022-09-22T22:36:20.434Z,1.00
2022-09-22T22:38:53.491Z,1.00
2022-09-22T22:41:22.056Z,1.00
2022-09-22T22:43:51.486Z,1.00
2022-09-22T22:46:20.380Z,1.00
2022-09-22T22:48:50.709Z,1.00
2022-09-22T22:51:21.842Z,1.00
2022-09-22T22:53:50.810Z,1.00
2022-09-22T22:56:21.904Z,1.00
2022-09-22T22:58:52.064Z,1.00
2022-09-22T23:01:22.933Z,1.00
2022-09-22T23:03:55.126Z,1.00
2022-09-22T23:06:26.369Z,1.00
2022-09-22T23:08:55.720Z,1.00
2022-09-22T23:11:27.325Z,1.00
2022-09-22T23:13:59.661Z,1.00
2022-09-22T23:16:30.244Z,1.00
2022-09-22T23:19:02.629Z,1.00
2022-09-22T23:21:32.379Z,1.00
2022-09-22T23:24:01.567Z,1.00
2022-09-22T23:26:30.665Z,1.00
2022-09-22T23:29:01.558Z,1.00
2022-09-22T23:31:31.712Z,1.00
2022-09-22T23:34:01.848Z,1.00
2022-09-22T23:36:31.321Z,1.00
2022-09-22T23:39:04.163Z,1.00
2022-09-22T23:41:34.041Z,1.00
2022-09-22T23:44:03.646Z,1.00
2022-09-22T23:46:32.828Z,1.00
2022-09-22T23:49:03.207Z,1.00
2022-09-22T23:51:31.988Z,1.00
2022-09-22T23:54:01.246Z,1.00
2022-09-22T23:56:30.247Z,1.00
2022-09-22T23:58:59.521Z,1.00
